Time;durP1;ratioP1;P1;durP2;ratioP2;P2;SDS_P1;SDS_P2;PMS_P1;PMS_P2;Temp;Humidity;BMP_temperature;BMP_pressure;BME280_temperature;BME280_humidity;BME280_pressure;Samples;Min_cycle;Max_cycle;Signal;HPM_P1;HPM_P2
2021/12/22 00:01:25;;;;;;;5.80;3.73;;;1.80;99.90;;;;;;4956228;29;20283;-77
2021/12/22 00:03:52;;;;;;;4.78;3.60;;;1.80;99.90;;;;;;4954497;28;20172;-77
2021/12/22 00:06:21;;;;;;;8.82;4.00;;;1.80;99.90;;;;;;4955824;29;20192;-76
2021/12/22 00:08:47;;;;;;;3.75;3.05;;;1.80;99.90;;;;;;4955931;29;20513;-77
2021/12/22 00:11:13;;;;;;;5.75;4.30;;;1.80;99.90;;;;;;4956231;29;20200;-77
2021/12/22 00:13:39;;;;;;;8.48;4.95;;;1.80;99.90;;;;;;4954768;29;20176;-78
2021/12/22 00:16:05;;;;;;;6.80;4.90;;;1.80;99.90;;;;;;4957184;29;20757;-76
2021/12/22 00:18:31;;;;;;;6.50;3.90;;;1.70;99.90;;;;;;4957476;29;20979;-77
2021/12/22 00:20:57;;;;;;;5.95;3.85;;;1.70;99.90;;;;;;4927039;29;20718;-76
2021/12/22 00:23:23;;;;;;;4.23;3.77;;;1.70;99.90;;;;;;4943255;29;20192;-76
2021/12/22 00:25:52;;;;;;;7.90;4.38;;;1.70;99.90;;;;;;4958201;29;20231;-76
2021/12/22 00:28:18;;;;;;;5.88;4.20;;;1.70;99.90;;;;;;4959640;29;20546;-76
2021/12/22 00:30:45;;;;;;;4.27;2.93;;;1.60;99.90;;;;;;4958953;29;20215;-77
2021/12/22 00:33:12;;;;;;;8.38;4.30;;;1.60;99.90;;;;;;4960614;29;20212;-77
2021/12/22 00:35:44;;;;;;;6.78;4.50;;;1.60;99.90;;;;;;4956569;29;20187;-76
2021/12/22 00:38:13;;;;;;;5.57;3.75;;;1.60;99.90;;;;;;4956320;29;20164;-77
2021/12/22 00:40:41;;;;;;;4.40;3.30;;;1.60;99.90;;;;;;4955740;29;20196;-76
2021/12/22 00:43:07;;;;;;;5.60;3.35;;;1.60;99.90;;;;;;4955643;29;20539;-77
2021/12/22 00:45:34;;;;;;;4.77;2.87;;;1.60;99.90;;;;;;4938689;29;20168;-76
2021/12/22 00:48:01;;;;;;;5.72;3.53;;;1.60;99.90;;;;;;4938381;29;20600;-76
2021/12/22 00:50:27;;;;;;;6.20;3.55;;;1.60;99.90;;;;;;4956508;29;20604;-76
2021/12/22 00:52:53;;;;;;;6.27;4.40;;;1.60;99.90;;;;;;4956468;29;20185;-77
2021/12/22 00:55:20;;;;;;;15.30;7.77;;;1.60;99.90;;;;;;4964775;29;20639;-76
2021/12/22 00:57:49;;;;;;;6.50;5.25;;;1.50;99.90;;;;;;4962402;29;20177;-76
2021/12/22 01:00:18;;;;;;;9.65;4.95;;;1.50;99.90;;;;;;4957097;29;20223;-76
2021/12/22 01:02:45;;;;;;;7.65;5.00;;;1.50;99.90;;;;;;4965131;29;20176;-76
2021/12/22 01:05:14;;;;;;;7.63;4.50;;;1.50;99.90;;;;;;4945907;29;20177;-75
2021/12/22 01:07:41;;;;;;;6.28;4.20;;;1.40;99.90;;;;;;4939321;29;20192;-76
2021/12/22 01:10:08;;;;;;;5.65;2.95;;;1.40;99.90;;;;;;4939168;29;20204;-77
2021/12/22 01:12:35;;;;;;;5.28;4.07;;;1.40;99.90;;;;;;4939467;29;20173;-76
2021/12/22 01:15:00;;;;;;;5.93;3.80;;;1.40;99.90;;;;;;4938534;29;20596;-76
2021/12/22 01:17:34;;;;;;;6.13;4.60;;;1.40;99.90;;;;;;4956402;29;20187;-75
2021/12/22 01:20:06;;;;;;;5.85;3.60;;;1.40;99.90;;;;;;4957113;29;20679;-76
2021/12/22 01:22:47;;;;;;;5.57;3.47;;;1.40;99.90;;;;;;4955555;29;20179;-76
2021/12/22 01:25:19;;;;;;;7.07;4.18;;;1.40;99.90;;;;;;4952607;29;20178;-77
2021/12/22 01:27:46;;;;;;;6.82;4.70;;;1.40;99.90;;;;;;4954281;29;20259;-76
2021/12/22 01:30:20;;;;;;;6.55;5.07;;;1.40;99.90;;;;;;4952795;29;20207;-75
2021/12/22 01:32:47;;;;;;;5.82;4.20;;;1.40;99.90;;;;;;4953177;29;20180;-76
2021/12/22 01:35:16;;;;;;;4.18;3.00;;;1.40;99.90;;;;;;4954716;29;20192;-77
2021/12/22 01:37:42;;;;;;;4.60;3.17;;;1.40;99.90;;;;;;4954180;29;20846;-77
2021/12/22 01:40:10;;;;;;;5.30;3.90;;;1.40;99.90;;;;;;4956375;29;20215;-77
2021/12/22 01:42:36;;;;;;;5.65;4.38;;;1.40;99.90;;;;;;4936641;29;20592;-77
2021/12/22 01:45:31;;;;;;;4.88;4.07;;;1.30;99.90;;;;;;4953975;29;20188;-77
2021/12/22 01:50:48;;;;;;;6.45;4.00;;;1.30;99.90;;;;;;4953639;29;20192;-77
2021/12/22 01:53:22;;;;;;;6.30;3.95;;;1.20;99.90;;;;;;4953196;29;20169;-78
2021/12/22 01:56:17;;;;;;;7.93;4.22;;;1.20;99.90;;;;;;4953170;29;20183;-77
2021/12/22 01:58:46;;;;;;;7.18;4.97;;;1.20;99.90;;;;;;4953895;29;20188;-78
2021/12/22 02:01:14;;;;;;;7.30;4.03;;;1.20;99.90;;;;;;4953639;29;20247;-78
2021/12/22 02:03:42;;;;;;;6.30;4.45;;;1.20;99.90;;;;;;4953092;29;20263;-77
2021/12/22 02:06:11;;;;;;;9.18;4.63;;;1.20;99.90;;;;;;4935831;29;20171;-78
2021/12/22 02:08:38;;;;;;;7.45;4.35;;;1.10;99.90;;;;;;4953484;29;20176;-78
2021/12/22 02:11:05;;;;;;;4.68;3.75;;;1.10;99.90;;;;;;4953324;29;20563;-78
2021/12/22 02:13:39;;;;;;;7.93;5.15;;;1.10;99.90;;;;;;4953109;29;20263;-78
2021/12/22 02:16:12;;;;;;;7.57;4.25;;;1.10;99.90;;;;;;4953117;29;20584;-78
2021/12/22 02:18:41;;;;;;;8.85;4.90;;;1.10;99.90;;;;;;4953185;29;20576;-78
2021/12/22 02:21:08;;;;;;;6.63;4.55;;;1.10;99.90;;;;;;4936128;29;20196;-77
2021/12/22 02:23:34;;;;;;;8.68;5.00;;;1.10;99.90;;;;;;4935795;29;20180;-77
2021/12/22 02:26:10;;;;;;;9.68;4.65;;;1.10;99.90;;;;;;4952698;28;20169;-77
2021/12/22 02:28:39;;;;;;;5.68;4.50;;;1.10;99.90;;;;;;4939362;29;20168;-77
2021/12/22 02:31:04;;;;;;;8.52;4.65;;;1.10;99.90;;;;;;4956163;29;20581;-77
2021/12/22 02:33:35;;;;;;;9.50;6.43;;;1.10;99.90;;;;;;4956851;29;20255;-77
2021/12/22 02:38:29;;;;;;;6.88;4.63;;;1.00;99.90;;;;;;4957901;29;20176;-77
2021/12/22 02:40:55;;;;;;;6.57;4.47;;;1.00;99.90;;;;;;4956137;29;20295;-77
2021/12/22 02:43:23;;;;;;;7.07;4.60;;;1.00;99.90;;;;;;4957943;29;20741;-76
2021/12/22 02:45:51;;;;;;;8.05;5.75;;;1.00;99.90;;;;;;4956060;29;21159;-76
2021/12/22 02:48:18;;;;;;;8.35;4.25;;;1.00;99.90;;;;;;4958125;29;20184;-76
2021/12/22 02:50:45;;;;;;;6.80;4.38;;;1.00;99.90;;;;;;4957424;29;20566;-76
2021/12/22 02:53:13;;;;;;;5.55;4.68;;;1.00;99.90;;;;;;4957110;29;20173;-77
2021/12/22 02:55:56;;;;;;;9.18;6.00;;;1.00;99.90;;;;;;4956575;29;20203;-76
2021/12/22 02:58:33;;;;;;;7.93;5.57;;;1.00;99.90;;;;;;4957104;29;20587;-76
2021/12/22 03:03:44;;;;;;;8.15;5.90;;;0.90;99.90;;;;;;4956700;29;20168;-75
2021/12/22 03:06:13;;;;;;;6.95;5.43;;;0.90;99.90;;;;;;4956284;29;20863;-76
2021/12/22 03:08:40;;;;;;;7.57;5.53;;;0.90;99.90;;;;;;4956790;29;20188;-76
2021/12/22 03:11:06;;;;;;;8.73;4.77;;;0.90;99.90;;;;;;4956552;29;20327;-76
2021/12/22 03:13:32;;;;;;;7.30;4.97;;;0.90;99.90;;;;;;4956390;29;20311;-76
2021/12/22 03:15:58;;;;;;;10.55;4.78;;;0.90;99.90;;;;;;4956119;29;20232;-76
2021/12/22 03:18:23;;;;;;;6.50;4.67;;;0.90;99.90;;;;;;4956182;29;20178;-76
2021/12/22 03:20:58;;;;;;;8.90;5.72;;;0.80;99.90;;;;;;4954913;29;20703;-76
2021/12/22 03:23:24;;;;;;;5.10;4.60;;;0.90;99.90;;;;;;4938996;29;20283;-76
2021/12/22 03:25:52;;;;;;;3.90;3.40;;;0.90;99.90;;;;;;4956065;29;20196;-75
2021/12/22 03:28:18;;;;;;;5.43;3.22;;;0.90;99.90;;;;;;4956262;29;20172;-75
2021/12/22 03:30:44;;;;;;;8.88;5.18;;;0.90;99.90;;;;;;4956040;29;20243;-75
2021/12/22 03:33:10;;;;;;;6.90;4.25;;;0.90;99.90;;;;;;4955545;29;20227;-76
2021/12/22 03:35:38;;;;;;;5.93;3.87;;;0.90;99.90;;;;;;4955859;29;20172;-76
2021/12/22 03:38:06;;;;;;;8.32;5.55;;;0.90;99.90;;;;;;4956143;28;20200;-75
2021/12/22 03:40:32;;;;;;;6.20;4.40;;;0.90;99.90;;;;;;4955640;29;20271;-76
2021/12/22 03:42:58;;;;;;;5.50;4.37;;;0.90;99.90;;;;;;4955862;29;20176;-75
2021/12/22 03:45:24;;;;;;;6.45;3.38;;;0.90;99.90;;;;;;4941504;29;20614;-75
2021/12/22 03:47:50;;;;;;;5.37;3.77;;;0.90;99.90;;;;;;4958327;29;20168;-76
2021/12/22 03:50:17;;;;;;;5.30;3.65;;;0.90;99.90;;;;;;4955697;29;20577;-76
2021/12/22 03:52:43;;;;;;;5.20;3.90;;;0.90;99.90;;;;;;4955810;29;20173;-76
2021/12/22 03:55:10;;;;;;;5.77;4.00;;;0.90;99.90;;;;;;4955349;29;20176;-76
2021/12/22 03:57:36;;;;;;;4.95;3.92;;;0.90;99.90;;;;;;4956049;29;20583;-76
2021/12/22 04:00:08;;;;;;;4.50;3.50;;;0.90;99.90;;;;;;4938146;29;20266;-75
2021/12/22 04:02:34;;;;;;;5.22;3.88;;;0.90;99.90;;;;;;4955341;29;20564;-76
2021/12/22 04:05:00;;;;;;;6.07;3.78;;;0.90;99.90;;;;;;4955658;29;20173;-76
2021/12/22 04:07:26;;;;;;;6.93;4.45;;;0.80;99.90;;;;;;4938006;29;20198;-76
2021/12/22 04:09:53;;;;;;;4.70;3.63;;;0.80;99.90;;;;;;4938406;29;20176;-76
2021/12/22 04:12:18;;;;;;;4.30;3.22;;;0.80;99.90;;;;;;4955765;29;20555;-77
2021/12/22 04:14:44;;;;;;;3.83;3.40;;;0.80;99.90;;;;;;4955611;29;20184;-76
2021/12/22 04:17:10;;;;;;;7.23;4.20;;;0.80;99.90;;;;;;4955186;29;20206;-77
2021/12/22 04:19:36;;;;;;;5.13;3.83;;;0.80;99.90;;;;;;4955647;29;20275;-77
2021/12/22 04:22:02;;;;;;;8.93;4.07;;;0.80;99.90;;;;;;4955194;29;20205;-76
2021/12/22 04:24:28;;;;;;;5.22;4.05;;;0.80;99.90;;;;;;4956278;29;20173;-77
2021/12/22 04:26:54;;;;;;;5.45;3.40;;;0.80;99.90;;;;;;4938431;29;20584;-77
2021/12/22 04:29:20;;;;;;;4.17;2.93;;;0.80;99.90;;;;;;4955726;29;20168;-77
2021/12/22 04:31:45;;;;;;;3.97;2.37;;;0.80;99.90;;;;;;4954989;29;20196;-77
2021/12/22 04:34:11;;;;;;;6.30;3.20;;;0.80;99.90;;;;;;4955132;29;20255;-77
2021/12/22 04:36:39;;;;;;;4.40;3.00;;;0.80;99.90;;;;;;4938823;29;20541;-77
2021/12/22 04:39:06;;;;;;;4.93;3.13;;;0.80;99.90;;;;;;4956019;29;20678;-76
2021/12/22 04:41:32;;;;;;;6.70;4.18;;;0.80;99.90;;;;;;4956360;29;20207;-77
2021/12/22 04:43:58;;;;;;;4.80;3.13;;;0.80;99.90;;;;;;4958793;29;20193;-76
2021/12/22 04:46:23;;;;;;;4.40;3.73;;;0.80;99.90;;;;;;4955734;29;20575;-77
2021/12/22 04:48:49;;;;;;;5.37;3.60;;;0.80;99.90;;;;;;4955909;29;20583;-76
2021/12/22 04:51:32;;;;;;;7.87;3.80;;;0.80;99.90;;;;;;4937892;29;21213;-76
2021/12/22 04:54:05;;;;;;;3.50;2.80;;;0.80;99.90;;;;;;4938240;29;20592;-76
2021/12/22 04:56:32;;;;;;;5.97;3.55;;;0.80;99.90;;;;;;4955253;29;20172;-77
2021/12/22 04:58:58;;;;;;;3.83;2.80;;;0.80;99.90;;;;;;4953726;29;20275;-76
2021/12/22 05:01:23;;;;;;;4.30;3.50;;;0.80;99.90;;;;;;4955113;29;20196;-76
2021/12/22 05:03:49;;;;;;;4.90;3.80;;;0.80;99.90;;;;;;4954992;29;20301;-77
2021/12/22 05:06:15;;;;;;;5.30;2.53;;;0.80;99.90;;;;;;4937395;29;20685;-77
2021/12/22 05:08:41;;;;;;;5.63;2.67;;;0.80;99.90;;;;;;4954872;29;20254;-77
2021/12/22 05:11:06;;;;;;;7.37;3.60;;;0.80;99.90;;;;;;4954598;29;20698;-76
2021/12/22 05:13:34;;;;;;;4.03;3.40;;;0.80;99.90;;;;;;4954631;29;20178;-76
2021/12/22 05:16:03;;;;;;;6.07;3.20;;;0.80;99.90;;;;;;4954098;29;20259;-77
2021/12/22 05:18:51;;;;;;;3.58;2.90;;;0.80;99.90;;;;;;4954385;29;20173;-76
2021/12/22 05:21:18;;;;;;;5.32;3.58;;;0.90;99.90;;;;;;4954666;29;20227;-76
2021/12/22 05:23:44;;;;;;;7.00;4.05;;;0.90;99.90;;;;;;4954700;29;20700;-76
2021/12/22 05:26:10;;;;;;;8.57;4.73;;;0.90;99.90;;;;;;4936296;29;20196;-77
2021/12/22 05:28:35;;;;;;;5.93;3.20;;;0.90;99.90;;;;;;4954111;29;20199;-77
2021/12/22 05:31:01;;;;;;;6.00;4.17;;;0.80;99.90;;;;;;4953817;29;20698;-77
2021/12/22 05:33:27;;;;;;;3.57;3.20;;;0.90;99.90;;;;;;4954365;29;20599;-77
2021/12/22 05:35:52;;;;;;;4.73;3.20;;;0.80;99.90;;;;;;4954029;29;20172;-77
2021/12/22 05:38:18;;;;;;;9.43;4.70;;;0.90;99.90;;;;;;4952926;29;20654;-77
2021/12/22 05:40:44;;;;;;;6.80;3.67;;;0.80;99.90;;;;;;4954615;29;20210;-76
2021/12/22 05:43:09;;;;;;;7.53;4.90;;;0.80;99.90;;;;;;4936479;29;20183;-76
2021/12/22 05:45:35;;;;;;;6.97;5.10;;;0.80;99.90;;;;;;4936473;29;20176;-76
2021/12/22 05:48:01;;;;;;;7.17;4.93;;;0.80;99.90;;;;;;4936556;29;20164;-76
2021/12/22 05:50:27;;;;;;;4.93;3.70;;;0.80;99.90;;;;;;4953543;29;20650;-76
2021/12/22 05:52:53;;;;;;;5.83;4.20;;;0.80;99.90;;;;;;4953335;29;20172;-77
2021/12/22 05:55:18;;;;;;;6.13;4.30;;;0.80;99.90;;;;;;4953735;29;20179;-76
2021/12/22 05:57:45;;;;;;;4.77;3.00;;;0.80;99.90;;;;;;4955542;29;20576;-77
2021/12/22 06:00:11;;;;;;;5.45;3.40;;;0.90;99.90;;;;;;4954896;29;20204;-77
2021/12/22 06:02:39;;;;;;;6.03;4.85;;;0.90;99.90;;;;;;4955335;28;20247;-77
2021/12/22 06:05:06;;;;;;;5.10;3.70;;;0.90;99.90;;;;;;4936712;29;20184;-77
2021/12/22 06:07:32;;;;;;;6.45;3.50;;;0.90;99.90;;;;;;4936677;29;20259;-77
2021/12/22 06:09:58;;;;;;;7.00;4.00;;;0.90;99.90;;;;;;4952446;29;20267;-77
2021/12/22 06:12:24;;;;;;;7.80;5.40;;;0.90;99.90;;;;;;4955068;29;20173;-77
2021/12/22 06:14:52;;;;;;;5.87;3.47;;;1.00;99.90;;;;;;4957237;29;20180;-77
2021/12/22 06:17:18;;;;;;;6.60;4.60;;;0.90;99.90;;;;;;4953753;29;20190;-77
2021/12/22 06:19:44;;;;;;;5.63;4.68;;;0.90;99.90;;;;;;4952955;28;20218;-76
2021/12/22 06:22:10;;;;;;;4.67;3.77;;;0.90;99.90;;;;;;4955704;29;20540;-76
2021/12/22 06:24:36;;;;;;;7.33;4.70;;;0.90;99.90;;;;;;4952848;29;20172;-77
2021/12/22 06:27:02;;;;;;;8.95;5.68;;;0.90;99.90;;;;;;4953637;29;20575;-77
2021/12/22 06:29:28;;;;;;;11.20;6.60;;;0.90;99.90;;;;;;4953807;29;20799;-76
2021/12/22 06:31:54;;;;;;;10.60;7.70;;;0.80;99.90;;;;;;4936115;29;21226;-76
2021/12/22 06:34:19;;;;;;;6.47;4.57;;;0.80;99.90;;;;;;4952579;29;20247;-77
2021/12/22 06:36:45;;;;;;;6.83;5.70;;;0.80;99.90;;;;;;4952108;29;20572;-76
2021/12/22 06:39:11;;;;;;;8.43;4.80;;;0.80;99.90;;;;;;4952444;29;20627;-75
2021/12/22 06:41:37;;;;;;;6.93;3.83;;;0.80;99.90;;;;;;4952226;29;20204;-75
2021/12/22 06:44:05;;;;;;;8.00;4.20;;;0.80;99.90;;;;;;4953528;29;20204;-76
2021/12/22 06:46:31;;;;;;;6.30;4.40;;;0.80;99.90;;;;;;4953042;29;20215;-75
2021/12/22 06:48:57;;;;;;;12.90;5.53;;;0.80;99.90;;;;;;4953405;29;20181;-75
2021/12/22 06:51:23;;;;;;;9.00;6.27;;;0.80;99.90;;;;;;4936251;29;20207;-76
2021/12/22 06:53:49;;;;;;;9.13;5.70;;;0.80;99.90;;;;;;4953218;29;20259;-75
2021/12/22 06:56:14;;;;;;;5.47;4.97;;;0.80;99.90;;;;;;4953329;29;20184;-75
2021/12/22 06:58:41;;;;;;;9.50;6.17;;;0.80;99.90;;;;;;4952634;29;21039;-75
2021/12/22 07:01:07;;;;;;;8.40;4.82;;;0.80;99.90;;;;;;4952601;29;20215;-74
2021/12/22 07:03:33;;;;;;;7.20;6.07;;;0.80;99.90;;;;;;4969794;28;20180;-75
2021/12/22 07:05:58;;;;;;;11.23;5.27;;;0.80;99.90;;;;;;4951786;29;20572;-74
2021/12/22 07:08:24;;;;;;;5.30;4.57;;;0.70;99.90;;;;;;4953075;29;20176;-74
2021/12/22 07:10:50;;;;;;;10.20;4.57;;;0.80;99.90;;;;;;4953181;29;20295;-75
2021/12/22 07:13:16;;;;;;;10.20;5.73;;;0.80;99.90;;;;;;4953688;28;20165;-75
2021/12/22 07:15:44;;;;;;;11.50;5.60;;;0.80;99.90;;;;;;4956266;28;20616;-75
2021/12/22 07:18:11;;;;;;;8.10;5.85;;;0.70;99.90;;;;;;4955594;29;20175;-74
2021/12/22 07:20:37;;;;;;;9.48;5.78;;;0.70;99.90;;;;;;4955154;29;20298;-76
2021/12/22 07:23:03;;;;;;;8.07;5.57;;;0.70;99.90;;;;;;4955536;29;20632;-74
2021/12/22 07:25:30;;;;;;;10.10;5.97;;;0.70;99.90;;;;;;4955285;29;20255;-74
2021/12/22 07:27:55;;;;;;;7.05;5.05;;;0.70;99.90;;;;;;4956723;29;20259;-74
2021/12/22 07:30:21;;;;;;;8.50;5.20;;;0.70;99.90;;;;;;4954282;29;20271;-75
2021/12/22 07:32:47;;;;;;;10.80;7.83;;;0.70;99.90;;;;;;4956284;29;20180;-75
2021/12/22 07:35:44;;;;;;;9.80;5.50;;;0.70;99.90;;;;;;4956427;29;20180;-75
2021/12/22 07:38:12;;;;;;;6.90;5.40;;;0.70;99.90;;;;;;4956469;29;20196;-75
2021/12/22 07:40:38;;;;;;;9.52;5.05;;;0.70;99.90;;;;;;4960523;29;20201;-74
2021/12/22 07:43:04;;;;;;;14.63;5.97;;;0.70;99.90;;;;;;4956150;29;20186;-76
2021/12/22 07:45:30;;;;;;;7.75;5.20;;;0.80;99.90;;;;;;4955935;29;20188;-75
2021/12/22 07:47:55;;;;;;;7.47;5.87;;;0.80;99.90;;;;;;4954747;29;20255;-75
2021/12/22 07:50:21;;;;;;;5.60;4.83;;;0.80;99.90;;;;;;5070569;22;20668;-76
2021/12/22 07:52:47;;;;;;;10.27;6.10;;;0.80;99.90;;;;;;5014123;28;20258;-75
2021/12/22 07:55:13;;;;;;;6.73;5.63;;;0.70;99.90;;;;;;4996861;28;20549;-75
2021/12/22 07:57:38;;;;;;;13.67;6.07;;;0.80;99.90;;;;;;5013998;28;20635;-75
2021/12/22 08:00:06;;;;;;;6.53;4.90;;;0.80;99.90;;;;;;5014047;28;20213;-75
2021/12/22 08:02:38;;;;;;;13.05;5.78;;;0.80;99.90;;;;;;5014083;28;20147;-76
2021/12/22 08:05:06;;;;;;;7.40;5.32;;;0.80;99.90;;;;;;5012959;28;20232;-76
2021/12/22 08:07:32;;;;;;;7.85;5.28;;;0.90;99.90;;;;;;5017481;28;20401;-78
2021/12/22 08:09:58;;;;;;;6.47;4.50;;;0.90;99.90;;;;;;5013905;28;20170;-78
2021/12/22 08:12:23;;;;;;;9.63;6.00;;;0.90;99.90;;;;;;5014305;28;20658;-78
2021/12/22 08:14:49;;;;;;;5.70;4.63;;;1.00;99.90;;;;;;5013006;28;20185;-78
2021/12/22 08:17:15;;;;;;;6.47;4.97;;;1.00;99.90;;;;;;5013747;28;20175;-77
2021/12/22 08:19:41;;;;;;;7.77;5.87;;;1.00;99.90;;;;;;5014877;28;20625;-78
2021/12/22 08:22:07;;;;;;;9.10;4.97;;;1.00;99.90;;;;;;5013041;28;20287;-78
2021/12/22 08:24:33;;;;;;;6.17;5.57;;;1.10;99.90;;;;;;5011846;28;21141;-78
2021/12/22 08:26:59;;;;;;;10.27;6.28;;;1.10;99.90;;;;;;5012364;28;20170;-76
2021/12/22 08:29:25;;;;;;;13.80;8.60;;;1.10;99.90;;;;;;4996007;28;20167;-77
2021/12/22 08:31:51;;;;;;;10.93;6.87;;;1.10;99.90;;;;;;4995472;28;20205;-77
2021/12/22 08:34:23;;;;;;;9.37;5.60;;;1.20;99.90;;;;;;5012190;28;20573;-77
2021/12/22 08:39:35;;;;;;;11.07;6.85;;;1.20;99.90;;;;;;5013198;28;20245;-78
2021/12/22 08:42:01;;;;;;;7.80;5.47;;;1.30;99.90;;;;;;4995686;28;20283;-78
2021/12/22 08:44:27;;;;;;;8.55;6.22;;;1.30;99.90;;;;;;5013424;28;20193;-78
2021/12/22 08:46:54;;;;;;;10.37;6.13;;;1.40;99.90;;;;;;5011506;28;20253;-78
2021/12/22 08:49:21;;;;;;;9.13;6.75;;;1.40;99.90;;;;;;4996016;28;20646;-78
2021/12/22 08:51:48;;;;;;;9.85;6.65;;;1.40;99.90;;;;;;5013427;28;20242;-78
2021/12/22 08:54:14;;;;;;;9.43;6.18;;;1.30;99.90;;;;;;4995541;28;20170;-78
2021/12/22 08:56:41;;;;;;;7.38;5.85;;;1.40;99.90;;;;;;4995502;28;20268;-78
2021/12/22 08:59:09;;;;;;;6.63;4.40;;;1.50;99.90;;;;;;4995388;28;20824;-78
2021/12/22 09:01:35;;;;;;;11.57;6.88;;;1.50;99.90;;;;;;5012208;28;20194;-77
2021/12/22 09:04:01;;;;;;;8.90;6.20;;;1.60;99.90;;;;;;4985516;28;20257;-78
2021/12/22 09:06:27;;;;;;;9.95;6.63;;;1.60;99.90;;;;;;4995219;28;20310;-77
2021/12/22 09:08:53;;;;;;;10.80;8.55;;;1.70;99.90;;;;;;5013673;28;20181;-78
2021/12/22 09:11:20;;;;;;;10.47;6.60;;;1.60;99.90;;;;;;5016757;28;20218;-79
2021/12/22 09:13:45;;;;;;;8.23;5.50;;;1.70;99.90;;;;;;5016803;28;20186;-79
2021/12/22 09:16:12;;;;;;;7.30;5.50;;;1.70;99.90;;;;;;4999097;28;20538;-78
2021/12/22 09:18:38;;;;;;;7.35;5.63;;;1.80;99.90;;;;;;5017059;28;20581;-77
2021/12/22 09:21:05;;;;;;;15.50;7.07;;;1.80;99.90;;;;;;5016906;28;20539;-77
2021/12/22 09:23:31;;;;;;;13.70;8.95;;;1.80;99.90;;;;;;5017547;28;20588;-77
2021/12/22 09:25:57;;;;;;;10.57;7.43;;;1.80;99.90;;;;;;5018882;28;20230;-78
2021/12/22 09:28:23;;;;;;;11.03;6.90;;;1.90;99.90;;;;;;5020513;28;20569;-76
2021/12/22 09:30:50;;;;;;;9.15;6.60;;;1.90;99.90;;;;;;5022689;28;20662;-76
2021/12/22 09:33:18;;;;;;;6.85;5.95;;;2.00;99.90;;;;;;5020750;28;20170;-77
2021/12/22 09:35:46;;;;;;;11.30;6.63;;;2.10;99.90;;;;;;5003640;28;20163;-77
2021/12/22 09:38:13;;;;;;;7.30;6.35;;;2.00;99.90;;;;;;5021457;28;20206;-78
2021/12/22 09:40:39;;;;;;;9.90;6.90;;;2.10;99.90;;;;;;5023963;28;20249;-78
2021/12/22 09:43:05;;;;;;;13.63;8.20;;;2.10;99.90;;;;;;5020617;28;20286;-77
2021/12/22 09:45:33;;;;;;;9.48;7.25;;;2.10;99.90;;;;;;5000080;28;20581;-78
2021/12/22 09:48:25;;;;;;;10.15;7.75;;;2.10;99.90;;;;;;5011110;28;20623;-77
2021/12/22 09:53:44;;;;;;;8.52;6.03;;;2.20;99.90;;;;;;4990390;28;20268;-78
2021/12/22 09:56:15;;;;;;;9.13;6.88;;;2.20;99.90;;;;;;4993960;28;20174;-78
2021/12/22 09:58:43;;;;;;;12.07;8.15;;;2.20;99.90;;;;;;5011582;28;20169;-77
2021/12/22 10:01:10;;;;;;;8.82;6.97;;;2.30;99.90;;;;;;4994412;28;20190;-77
2021/12/22 10:03:37;;;;;;;11.73;7.95;;;2.30;99.90;;;;;;5011514;28;20166;-78
2021/12/22 10:06:03;;;;;;;8.25;6.80;;;2.40;99.90;;;;;;4994068;28;20166;-78
2021/12/22 10:08:29;;;;;;;10.20;8.82;;;2.40;99.90;;;;;;5016657;28;20190;-77
2021/12/22 10:11:08;;;;;;;9.57;7.70;;;2.40;99.90;;;;;;5014586;28;20198;-77
2021/12/22 10:13:35;;;;;;;6.88;6.15;;;2.40;99.90;;;;;;5011829;28;20592;-78
2021/12/22 10:16:51;;;;;;;7.53;6.68;;;2.50;99.90;;;;;;5011606;28;20178;-75
2021/12/22 10:22:12;;;;;;;9.82;6.80;;;2.70;99.90;;;;;;4970294;28;20212;-77
2021/12/22 10:24:43;;;;;;;9.87;6.83;;;2.80;99.90;;;;;;4973255;28;20172;-75
2021/12/22 10:27:19;;;;;;;8.90;6.53;;;2.90;99.90;;;;;;4972709;28;20172;-75
2021/12/22 10:29:45;;;;;;;10.45;7.40;;;3.00;99.90;;;;;;4972628;28;20175;-75
2021/12/22 10:32:14;;;;;;;8.57;7.67;;;3.10;99.90;;;;;;4972823;28;20250;-76
2021/12/22 10:35:12;;;;;;;8.98;7.78;;;3.10;99.90;;;;;;4973038;28;20186;-75
2021/12/22 10:37:40;;;;;;;11.23;9.25;;;3.10;99.90;;;;;;4940423;28;20180;-77
2021/12/22 10:40:26;;;;;;;9.52;7.50;;;3.10;99.90;;;;;;4971638;28;20222;-77
2021/12/22 10:42:52;;;;;;;9.20;6.93;;;3.20;99.90;;;;;;4973158;28;20178;-77
2021/12/22 10:45:19;;;;;;;9.70;7.75;;;3.30;99.90;;;;;;4973051;28;20179;-77
2021/12/22 10:50:45;;;;;;;9.63;7.07;;;3.40;99.90;;;;;;4976497;28;20230;-75
2021/12/22 10:53:13;;;;;;;10.80;8.57;;;3.50;99.90;;;;;;4975391;28;20182;-76
2021/12/22 10:55:48;;;;;;;13.52;9.40;;;3.50;99.90;;;;;;4974922;28;20266;-76
2021/12/22 10:58:30;;;;;;;8.55;7.60;;;3.50;99.90;;;;;;4975497;28;20179;-75
2021/12/22 11:01:06;;;;;;;10.27;7.88;;;3.60;99.90;;;;;;4976033;28;20195;-75
2021/12/22 11:03:40;;;;;;;9.43;6.70;;;3.70;99.90;;;;;;4976288;28;20164;-75
2021/12/22 11:06:16;;;;;;;9.45;8.43;;;3.80;99.90;;;;;;4976071;28;20510;-74
2021/12/22 11:08:55;;;;;;;11.00;9.18;;;3.80;99.90;;;;;;4976556;28;20493;-75
2021/12/22 11:11:22;;;;;;;7.28;6.55;;;3.80;99.90;;;;;;4976151;28;20646;-74
2021/12/22 11:14:07;;;;;;;8.68;7.78;;;3.90;99.90;;;;;;4976374;28;20174;-74
2021/12/22 11:16:50;;;;;;;10.93;7.45;;;3.90;99.90;;;;;;4975099;28;20167;-74
2021/12/22 11:19:15;;;;;;;7.15;6.40;;;4.00;99.90;;;;;;4976573;28;20202;-75
2021/12/22 11:21:58;;;;;;;11.57;8.30;;;3.90;99.90;;;;;;4975683;28;20199;-75
2021/12/22 11:24:26;;;;;;;10.70;8.65;;;3.90;99.90;;;;;;4978327;28;20172;-74
2021/12/22 11:26:52;;;;;;;11.60;9.35;;;3.90;99.90;;;;;;4975639;28;20163;-74
2021/12/22 11:29:18;;;;;;;10.55;8.30;;;3.90;99.90;;;;;;4974574;28;20164;-74
2021/12/22 11:31:47;;;;;;;10.75;7.63;;;3.90;99.90;;;;;;4975762;28;20260;-75
2021/12/22 11:34:16;;;;;;;8.23;7.25;;;3.90;99.90;;;;;;4975383;28;20616;-76
2021/12/22 11:36:44;;;;;;;9.93;8.07;;;4.00;99.90;;;;;;4974299;28;20456;-74
2021/12/22 11:39:10;;;;;;;10.45;8.65;;;4.00;99.90;;;;;;4975333;28;20207;-75
2021/12/22 11:41:43;;;;;;;9.98;7.70;;;4.00;99.90;;;;;;4975614;28;20192;-74
2021/12/22 11:44:13;;;;;;;8.02;6.93;;;4.10;99.90;;;;;;4974111;28;20172;-75
2021/12/22 11:46:40;;;;;;;11.13;8.48;;;4.10;99.90;;;;;;4975490;28;20172;-75
2021/12/22 11:49:06;;;;;;;7.97;6.68;;;4.10;99.90;;;;;;4957796;28;20199;-76
2021/12/22 11:51:34;;;;;;;10.95;8.63;;;4.20;99.90;;;;;;4957955;28;20196;-75
2021/12/22 11:54:07;;;;;;;8.32;6.72;;;4.20;99.90;;;;;;4975316;28;20168;-75
2021/12/22 11:56:43;;;;;;;8.73;6.95;;;4.40;99.90;;;;;;4973748;28;20591;-76
2021/12/22 11:59:27;;;;;;;12.15;8.48;;;4.40;99.90;;;;;;4975100;28;20199;-76
2021/12/22 12:02:16;;;;;;;9.18;7.93;;;4.40;99.90;;;;;;4973812;28;20618;-76
2021/12/22 12:04:42;;;;;;;9.43;7.78;;;4.40;99.90;;;;;;4957893;28;20180;-76
2021/12/22 12:07:08;;;;;;;10.38;7.20;;;4.40;99.90;;;;;;4974825;28;20156;-76
2021/12/22 12:09:34;;;;;;;8.97;6.70;;;4.50;99.90;;;;;;4974982;28;20176;-76
2021/12/22 12:12:04;;;;;;;8.70;6.97;;;4.60;99.90;;;;;;4974596;28;20690;-76
2021/12/22 12:23:27;;;;;;;9.35;8.25;;;4.70;99.90;;;;;;4933738;29;20173;-75
2021/12/22 12:25:55;;;;;;;10.27;8.00;;;4.50;99.90;;;;;;4941238;28;20184;-75
2021/12/22 12:28:22;;;;;;;9.95;7.75;;;4.60;99.90;;;;;;4974386;28;20660;-75
2021/12/22 12:30:54;;;;;;;8.52;6.93;;;4.60;99.90;;;;;;4974571;28;20587;-76
2021/12/22 12:33:28;;;;;;;8.52;7.10;;;4.60;99.90;;;;;;4974549;28;20179;-75
2021/12/22 12:36:08;;;;;;;12.05;8.55;;;4.70;99.90;;;;;;4974620;28;20170;-76
2021/12/22 12:38:40;;;;;;;7.70;6.90;;;4.70;99.90;;;;;;4977857;28;20194;-76
2021/12/22 12:41:15;;;;;;;7.93;6.93;;;4.70;99.90;;;;;;4973054;28;20278;-75
2021/12/22 12:43:44;;;;;;;8.23;6.57;;;4.90;99.90;;;;;;4973216;28;20171;-75
2021/12/22 12:46:19;;;;;;;10.25;7.90;;;5.00;99.90;;;;;;4973096;28;20537;-75
2021/12/22 12:48:48;;;;;;;12.80;8.07;;;4.90;99.90;;;;;;4974298;28;20167;-76
2021/12/22 12:51:15;;;;;;;8.25;7.38;;;4.80;99.90;;;;;;4972974;28;20184;-75
2021/12/22 12:53:44;;;;;;;8.85;7.00;;;4.80;99.90;;;;;;4974377;28;20168;-76
2021/12/22 12:56:12;;;;;;;8.48;6.80;;;4.80;99.90;;;;;;4974233;28;20234;-75
2021/12/22 12:58:59;;;;;;;8.70;7.22;;;4.90;99.90;;;;;;4972671;28;20751;-75
2021/12/22 13:01:44;;;;;;;9.60;8.68;;;5.00;99.90;;;;;;4973896;28;20199;-75
2021/12/22 13:04:23;;;;;;;11.48;9.02;;;5.10;99.90;;;;;;4956803;28;20171;-76
2021/12/22 13:07:07;;;;;;;7.63;6.85;;;5.10;99.90;;;;;;4974012;28;20528;-76
2021/12/22 13:09:37;;;;;;;8.63;7.65;;;5.10;99.90;;;;;;4974450;28;20692;-75
2021/12/22 13:17:23;;;;;;;11.95;9.55;;;5.10;99.90;;;;;;4973071;28;20588;-75
2021/12/22 13:19:55;;;;;;;10.35;9.30;;;5.10;99.90;;;;;;4972348;28;20195;-73
2021/12/22 13:22:23;;;;;;;11.05;8.63;;;4.90;99.90;;;;;;4953627;29;20247;-73
2021/12/22 13:25:15;;;;;;;10.75;9.30;;;5.00;99.90;;;;;;4953007;29;20168;-74
2021/12/22 13:27:44;;;;;;;10.32;8.27;;;4.90;99.90;;;;;;4952983;29;20176;-74
2021/12/22 13:30:14;;;;;;;12.82;8.70;;;5.00;99.90;;;;;;4953776;29;20235;-75
2021/12/22 13:32:58;;;;;;;9.85;8.07;;;4.90;99.90;;;;;;4968702;28;20183;-75
2021/12/22 13:35:40;;;;;;;10.15;8.80;;;4.90;99.90;;;;;;4952651;29;20173;-75
2021/12/22 13:41:29;;;;;;;12.50;9.02;;;4.80;99.90;;;;;;4948752;29;20216;-75